sensor_id;sensor_type;location;lat;lon;timestamp;pressure;altitude;pressure_sealevel;temperature;humidity
13420;BME280;6781;58.440;15.470;2023-02-28T00:00:36;103258.63;;;-0.81;100.00
13420;BME280;6781;58.440;15.470;2023-02-28T00:03:03;103267.97;;;-0.82;100.00
13420;BME280;6781;58.440;15.470;2023-02-28T00:05:30;103257.78;;;-0.82;100.00
13420;BME280;6781;58.440;15.470;2023-02-28T00:07:56;103271.34;;;-0.83;100.00
13420;BME280;6781;58.440;15.470;2023-02-28T00:10:24;103275.59;;;-0.82;100.00
13420;BME280;6781;58.440;15.470;2023-02-28T00:12:54;103279.84;;;-0.81;100.00
13420;BME280;6781;58.440;15.470;2023-02-28T00:15:22;103281.53;;;-0.83;100.00
13420;BME280;6781;58.440;15.470;2023-02-28T00:17:49;103283.25;;;-0.82;100.00
13420;BME280;6781;58.440;15.470;2023-02-28T00:20:16;103290.00;;;-0.84;100.00
13420;BME280;6781;58.440;15.470;2023-02-28T00:22:44;103283.19;;;-0.85;100.00
13420;BME280;6781;58.440;15.470;2023-02-28T00:25:13;103288.28;;;-0.85;100.00
13420;BME280;6781;58.440;15.470;2023-02-28T00:27:40;103279.78;;;-0.87;100.00
13420;BME280;6781;58.440;15.470;2023-02-28T00:30:09;103291.66;;;-0.87;100.00
13420;BME280;6781;58.440;15.470;2023-02-28T00:32:37;103297.59;;;-0.88;100.00
13420;BME280;6781;58.440;15.470;2023-02-28T00:35:04;103305.25;;;-0.87;100.00
13420;BME280;6781;58.440;15.470;2023-02-28T00:37:31;103313.78;;;-0.85;100.00
13420;BME280;6781;58.440;15.470;2023-02-28T00:39:58;103318.94;;;-0.79;100.00
13420;BME280;6781;58.440;15.470;2023-02-28T00:42:25;103314.69;;;-0.78;100.00
13420;BME280;6781;58.440;15.470;2023-02-28T00:44:52;103306.97;;;-0.86;100.00
13420;BME280;6781;58.440;15.470;2023-02-28T00:47:20;103316.28;;;-0.86;100.00
13420;BME280;6781;58.440;15.470;2023-02-28T00:49:47;103307.81;;;-0.85;100.00
13420;BME280;6781;58.440;15.470;2023-02-28T00:52:14;103312.06;;;-0.86;100.00
13420;BME280;6781;58.440;15.470;2023-02-28T00:54:41;103315.44;;;-0.87;100.00
13420;BME280;6781;58.440;15.470;2023-02-28T00:57:07;103309.47;;;-0.90;100.00
13420;BME280;6781;58.440;15.470;2023-02-28T00:59:34;103316.28;;;-0.86;100.00
13420;BME280;6781;58.440;15.470;2023-02-28T01:02:01;103315.44;;;-0.87;100.00
13420;BME280;6781;58.440;15.470;2023-02-28T01:04:30;103310.31;;;-0.90;100.00
13420;BME280;6781;58.440;15.470;2023-02-28T01:06:57;103313.66;;;-0.94;100.00
13420;BME280;6781;58.440;15.470;2023-02-28T01:09:24;103322.97;;;-0.94;100.00
13420;BME280;6781;58.440;15.470;2023-02-28T01:11:51;103311.91;;;-0.98;100.00
13420;BME280;6781;58.440;15.470;2023-02-28T01:14:17;103315.28;;;-0.99;100.00
13420;BME280;6781;58.440;15.470;2023-02-28T01:16:45;103318.69;;;-0.99;100.00
13420;BME280;6781;58.440;15.470;2023-02-28T01:19:12;103325.47;;;-0.99;100.00
13420;BME280;6781;58.440;15.470;2023-02-28T01:21:40;103330.56;;;-0.99;100.00
13420;BME280;6781;58.440;15.470;2023-02-28T01:24:07;103320.38;;;-0.99;100.00
13420;BME280;6781;58.440;15.470;2023-02-28T01:26:34;103332.28;;;-0.98;100.00
13420;BME280;6781;58.440;15.470;2023-02-28T01:29:00;103323.78;;;-0.97;100.00
13420;BME280;6781;58.440;15.470;2023-02-28T01:31:27;103327.19;;;-0.98;100.00
13420;BME280;6781;58.440;15.470;2023-02-28T01:33:54;103328.88;;;-0.99;100.00
13420;BME280;6781;58.440;15.470;2023-02-28T01:36:22;103321.22;;;-0.99;100.00
13420;BME280;6781;58.440;15.470;2023-02-28T01:38:50;103327.13;;;-1.01;100.00
13420;BME280;6781;58.440;15.470;2023-02-28T01:41:18;103332.28;;;-0.98;100.00
13420;BME280;6781;58.440;15.470;2023-02-28T01:43:53;103324.59;;;-1.01;100.00
13420;BME280;6781;58.440;15.470;2023-02-28T01:46:20;103325.50;;;-0.98;100.00
13420;BME280;6781;58.440;15.470;2023-02-28T01:48:48;103332.28;;;-0.98;100.00
13420;BME280;6781;58.440;15.470;2023-02-28T01:51:18;103323.81;;;-0.95;100.00
13420;BME280;6781;58.440;15.470;2023-02-28T01:53:47;103337.38;;;-0.98;100.00
13420;BME280;6781;58.440;15.470;2023-02-28T01:56:17;103334.03;;;-0.94;100.00
13420;BME280;6781;58.440;15.470;2023-02-28T01:58:46;103339.09;;;-0.95;100.00
13420;BME280;6781;58.440;15.470;2023-02-28T02:01:12;103331.41;;;-0.99;100.00
13420;BME280;6781;58.440;15.470;2023-02-28T02:03:46;103334.84;;;-0.96;100.00
13420;BME280;6781;58.440;15.470;2023-02-28T02:06:13;103332.28;;;-0.96;100.00
13420;BME280;6781;58.440;15.470;2023-02-28T02:08:40;103340.84;;;-0.93;100.00
13420;BME280;6781;58.440;15.470;2023-02-28T02:11:07;103330.66;;;-0.91;100.00
13420;BME280;6781;58.440;15.470;2023-02-28T02:13:42;103334.03;;;-0.92;100.00
13420;BME280;6781;58.440;15.470;2023-02-28T02:16:21;103329.81;;;-0.90;100.00
13420;BME280;6781;58.440;15.470;2023-02-28T02:18:51;103337.50;;;-0.89;100.00
13420;BME280;6781;58.440;15.470;2023-02-28T02:24:14;103340.03;;;-0.89;100.00
13420;BME280;6781;58.440;15.470;2023-02-28T02:29:44;103348.50;;;-0.90;100.00
13420;BME280;6781;58.440;15.470;2023-02-28T02:32:24;103346.81;;;-0.89;100.00
13420;BME280;6781;58.440;15.470;2023-02-28T02:34:58;103340.00;;;-0.92;100.00
13420;BME280;6781;58.440;15.470;2023-02-28T02:37:28;103347.69;;;-0.89;100.00
13420;BME280;6781;58.440;15.470;2023-02-28T02:39:59;103335.75;;;-0.91;100.00
13420;BME280;6781;58.440;15.470;2023-02-28T02:42:28;103325.56;;;-0.93;100.00
13420;BME280;6781;58.440;15.470;2023-02-28T02:44:58;103325.50;;;-0.96;100.00
13420;BME280;6781;58.440;15.470;2023-02-28T02:47:27;103328.97;;;-0.91;100.00
13420;BME280;6781;58.440;15.470;2023-02-28T02:49:58;103323.00;;;-0.93;100.00
13420;BME280;6781;58.440;15.470;2023-02-28T02:52:30;103324.66;;;-0.96;100.00
13420;BME280;6781;58.440;15.470;2023-02-28T02:55:00;103327.25;;;-0.92;100.00
13420;BME280;6781;58.440;15.470;2023-02-28T02:57:30;103329.78;;;-0.93;100.00
13420;BME280;6781;58.440;15.470;2023-02-28T02:59:59;103328.97;;;-0.91;100.00
13420;BME280;6781;58.440;15.470;2023-02-28T03:02:28;103329.00;;;-0.89;100.00
13420;BME280;6781;58.440;15.470;2023-02-28T03:07:35;103327.22;;;-0.95;100.00
13420;BME280;6781;58.440;15.470;2023-02-28T03:10:02;103323.84;;;-0.94;100.00
13420;BME280;6781;58.440;15.470;2023-02-28T03:12:32;103327.22;;;-0.95;100.00
13420;BME280;6781;58.440;15.470;2023-02-28T03:15:02;103329.78;;;-0.95;100.00
13420;BME280;6781;58.440;15.470;2023-02-28T03:17:37;103333.94;;;-1.00;100.00
13420;BME280;6781;58.440;15.470;2023-02-28T03:20:11;103328.81;;;-1.03;100.00
13420;BME280;6781;58.440;15.470;2023-02-28T03:22:43;103330.53;;;-1.01;100.00
13420;BME280;6781;58.440;15.470;2023-02-28T03:25:16;103334.72;;;-1.04;100.00
13420;BME280;6781;58.440;15.470;2023-02-28T03:27:46;103338.13;;;-1.04;100.00
13420;BME280;6781;58.440;15.470;2023-02-28T03:30:22;103343.19;;;-1.07;100.00
13420;BME280;6781;58.440;15.470;2023-02-28T03:32:53;103346.69;;;-1.00;100.00
13420;BME280;6781;58.440;15.470;2023-02-28T03:35:22;103347.47;;;-1.04;100.00
13420;BME280;6781;58.440;15.470;2023-02-28T03:37:52;103345.72;;;-1.08;100.00
13420;BME280;6781;58.440;15.470;2023-02-28T03:40:20;103347.44;;;-1.07;100.00
13420;BME280;6781;58.440;15.470;2023-02-28T03:42:48;103349.06;;;-1.12;100.00
13420;BME280;6781;58.440;15.470;2023-02-28T03:45:19;103349.00;;;-1.15;100.00
13420;BME280;6781;58.440;15.470;2023-02-28T03:47:49;103352.38;;;-1.16;100.00
13420;BME280;6781;58.440;15.470;2023-02-28T03:50:18;103347.25;;;-1.19;100.00
13420;BME280;6781;58.440;15.470;2023-02-28T03:52:49;103348.91;;;-1.21;100.00
13420;BME280;6781;58.440;15.470;2023-02-28T03:55:18;103345.50;;;-1.23;100.00
13420;BME280;6781;58.440;15.470;2023-02-28T03:57:49;103347.19;;;-1.22;100.00
13420;BME280;6781;58.440;15.470;2023-02-28T04:00:18;103352.28;;;-1.22;100.00
13420;BME280;6781;58.440;15.470;2023-02-28T04:02:46;103361.59;;;-1.24;100.00
13420;BME280;6781;58.440;15.470;2023-02-28T04:05:17;103367.56;;;-1.22;100.00
13420;BME280;6781;58.440;15.470;2023-02-28T04:07:44;103376.94;;;-1.20;100.00
13420;BME280;6781;58.440;15.470;2023-02-28T04:10:11;103372.66;;;-1.22;100.00
13420;BME280;6781;58.440;15.470;2023-02-28T04:12:39;103381.13;;;-1.23;100.00
13420;BME280;6781;58.440;15.470;2023-02-28T04:15:07;103370.91;;;-1.26;100.00
13420;BME280;6781;58.440;15.470;2023-02-28T04:17:34;103376.09;;;-1.20;100.00
13420;BME280;6781;58.440;15.470;2023-02-28T04:20:00;103380.28;;;-1.22;100.00
13420;BME280;6781;58.440;15.470;2023-02-28T04:22:29;103376.84;;;-1.26;100.00
13420;BME280;6781;58.440;15.470;2023-02-28T04:24:55;103379.41;;;-1.24;100.00
13420;BME280;6781;58.440;15.470;2023-02-28T04:27:22;103376.84;;;-1.26;100.00
13420;BME280;6781;58.440;15.470;2023-02-28T04:29:51;103377.69;;;-1.25;100.00
13420;BME280;6781;58.440;15.470;2023-02-28T04:32:18;103383.63;;;-1.26;100.00
13420;BME280;6781;58.440;15.470;2023-02-28T04:34:45;103383.59;;;-1.28;100.00
13420;BME280;6781;58.440;15.470;2023-02-28T04:37:13;103381.03;;;-1.29;100.00
13420;BME280;6781;58.440;15.470;2023-02-28T04:39:39;103378.44;;;-1.33;100.00
13420;BME280;6781;58.440;15.470;2023-02-28T04:42:06;103380.16;;;-1.32;100.00
13420;BME280;6781;58.440;15.470;2023-02-28T04:44:33;103380.16;;;-1.32;100.00
13420;BME280;6781;58.440;15.470;2023-02-28T04:47:01;103384.38;;;-1.34;100.00
13420;BME280;6781;58.440;15.470;2023-02-28T04:49:28;103390.34;;;-1.32;100.00
13420;BME280;6781;58.440;15.470;2023-02-28T04:51:55;103381.00;;;-1.31;100.00
13420;BME280;6781;58.440;15.470;2023-02-28T04:54:22;103385.22;;;-1.33;100.00
13420;BME280;6781;58.440;15.470;2023-02-28T04:56:48;103382.69;;;-1.32;100.00
13420;BME280;6781;58.440;15.470;2023-02-28T04:59:15;103386.91;;;-1.34;100.00
13420;BME280;6781;58.440;15.470;2023-02-28T05:01:44;103382.66;;;-1.35;100.00
13420;BME280;6781;58.440;15.470;2023-02-28T05:04:14;103389.44;;;-1.34;100.00
13420;BME280;6781;58.440;15.470;2023-02-28T05:06:41;103397.97;;;-1.32;100.00
13420;BME280;6781;58.440;15.470;2023-02-28T05:09:08;103394.59;;;-1.31;100.00
13420;BME280;6781;58.440;15.470;2023-02-28T05:11:36;103398.03;;;-1.28;100.00
13420;BME280;6781;58.440;15.470;2023-02-28T05:14:04;103402.28;;;-1.27;100.00
13420;BME280;6781;58.440;15.470;2023-02-28T05:16:31;103393.81;;;-1.26;100.00
13420;BME280;6781;58.440;15.470;2023-02-28T05:18:58;103391.25;;;-1.26;100.00
13420;BME280;6781;58.440;15.470;2023-02-28T05:21:27;103385.28;;;-1.30;100.00
13420;BME280;6781;58.440;15.470;2023-02-28T05:23:55;103386.91;;;-1.34;100.00
13420;BME280;6781;58.440;15.470;2023-02-28T05:26:22;103386.97;;;-1.29;100.00
13420;BME280;6781;58.440;15.470;2023-02-28T05:28:49;103378.44;;;-1.33;100.00
13420;BME280;6781;58.440;15.470;2023-02-28T05:31:16;103372.56;;;-1.28;100.00
13420;BME280;6781;58.440;15.470;2023-02-28T05:33:43;103363.16;;;-1.33;100.00
13420;BME280;6781;58.440;15.470;2023-02-28T05:36:29;103364.84;;;-1.35;100.00
13420;BME280;6781;58.440;15.470;2023-02-28T05:38:55;103362.16;;;-1.44;100.00
13420;BME280;6781;58.440;15.470;2023-02-28T05:41:26;103363.75;;;-1.49;100.00
13420;BME280;6781;58.440;15.470;2023-02-28T05:43:55;103366.31;;;-1.47;100.00
13420;BME280;6781;58.440;15.470;2023-02-28T05:46:22;103361.31;;;-1.43;100.00
13420;BME280;6781;58.440;15.470;2023-02-28T05:48:49;103366.41;;;-1.43;100.00
13420;BME280;6781;58.440;15.470;2023-02-28T05:51:25;103375.00;;;-1.35;100.00
13420;BME280;6781;58.440;15.470;2023-02-28T05:53:54;103369.09;;;-1.34;100.00
13420;BME280;6781;58.440;15.470;2023-02-28T05:56:22;103373.22;;;-1.40;100.00
13420;BME280;6781;58.440;15.470;2023-02-28T05:58:51;103370.66;;;-1.42;100.00
13420;BME280;6781;58.440;15.470;2023-02-28T06:01:22;103365.53;;;-1.45;100.00
13420;BME280;6781;58.440;15.470;2023-02-28T06:03:50;103368.13;;;-1.40;100.00
13420;BME280;6781;58.440;15.470;2023-02-28T06:06:17;103366.38;;;-1.44;100.00
13420;BME280;6781;58.440;15.470;2023-02-28T06:08:45;103367.22;;;-1.44;100.00
13420;BME280;6781;58.440;15.470;2023-02-28T06:11:14;103376.59;;;-1.43;100.00
13420;BME280;6781;58.440;15.470;2023-02-28T06:13:41;103391.06;;;-1.39;100.00
13420;BME280;6781;58.440;15.470;2023-02-28T06:16:09;103392.72;;;-1.41;100.00
13420;BME280;6781;58.440;15.470;2023-02-28T06:18:36;103400.38;;;-1.41;100.00
13420;BME280;6781;58.440;15.470;2023-02-28T06:21:06;103405.47;;;-1.41;100.00
13420;BME280;6781;58.440;15.470;2023-02-28T06:23:34;103413.91;;;-1.43;100.00
13420;BME280;6781;58.440;15.470;2023-02-28T06:26:01;103409.66;;;-1.43;100.00
13420;BME280;6781;58.440;15.470;2023-02-28T06:28:29;103419.84;;;-1.43;100.00
13420;BME280;6781;58.440;15.470;2023-02-28T06:30:58;103424.06;;;-1.43;100.00
13420;BME280;6781;58.440;15.470;2023-02-28T06:33:25;103423.28;;;-1.41;100.00
13420;BME280;6781;58.440;15.470;2023-02-28T06:35:58;103439.44;;;-1.37;100.00
13420;BME280;6781;58.440;15.470;2023-02-28T06:38:27;103430.91;;;-1.41;100.00
13420;BME280;6781;58.440;15.470;2023-02-28T06:40:57;103419.91;;;-1.40;100.00
13420;BME280;6781;58.440;15.470;2023-02-28T06:43:25;103431.88;;;-1.33;100.00
13420;BME280;6781;58.440;15.470;2023-02-28T06:45:55;103440.38;;;-1.32;100.00
13420;BME280;6781;58.440;15.470;2023-02-28T06:48:22;103436.16;;;-1.32;100.00
13420;BME280;6781;58.440;15.470;2023-02-28T06:50:49;103445.50;;;-1.31;100.00
13420;BME280;6781;58.440;15.470;2023-02-28T06:53:16;103449.72;;;-1.31;100.00
13420;BME280;6781;58.440;15.470;2023-02-28T06:55:43;103448.09;;;-1.27;100.00
13420;BME280;6781;58.440;15.470;2023-02-28T06:58:10;103450.63;;;-1.29;100.00
13420;BME280;6781;58.440;15.470;2023-02-28T07:00:43;103460.81;;;-1.27;100.00
13420;BME280;6781;58.440;15.470;2023-02-28T07:03:16;103460.09;;;-1.20;100.00
13420;BME280;6781;58.440;15.470;2023-02-28T07:05:44;103466.06;;;-1.18;100.00
13420;BME280;6781;58.440;15.470;2023-02-28T07:08:11;103468.69;;;-1.14;100.00
13420;BME280;6781;58.440;15.470;2023-02-28T07:10:44;103472.16;;;-1.09;100.00
13420;BME280;6781;58.440;15.470;2023-02-28T07:13:11;103480.72;;;-1.05;100.00
13420;BME280;6781;58.440;15.470;2023-02-28T07:15:38;103486.75;;;-1.00;100.00
13420;BME280;6781;58.440;15.470;2023-02-28T07:18:24;103497.03;;;-0.94;100.00
13420;BME280;6781;58.440;15.470;2023-02-28T07:20:54;103498.69;;;-0.96;100.00
13420;BME280;6781;58.440;15.470;2023-02-28T07:23:22;103490.22;;;-0.95;100.00
13420;BME280;6781;58.440;15.470;2023-02-28T07:25:51;103492.75;;;-0.96;100.00
13420;BME280;6781;58.440;15.470;2023-02-28T07:28:27;103495.31;;;-0.95;100.00
13420;BME280;6781;58.440;15.470;2023-02-28T07:31:03;103503.88;;;-0.90;100.00
13420;BME280;6781;58.440;15.470;2023-02-28T07:36:41;103495.56;;;-0.80;100.00
13420;BME280;6781;58.440;15.470;2023-02-28T07:39:08;103498.97;;;-0.78;100.00
13420;BME280;6781;58.440;15.470;2023-02-28T07:41:36;103501.72;;;-0.66;100.00
13420;BME280;6781;58.440;15.470;2023-02-28T07:44:12;103502.69;;;-0.57;100.00
13420;BME280;6781;58.440;15.470;2023-02-28T07:46:39;103499.31;;;-0.56;100.00
13420;BME280;6781;58.440;15.470;2023-02-28T07:49:16;103505.34;;;-0.50;100.00
13420;BME280;6781;58.440;15.470;2023-02-28T07:51:58;103505.44;;;-0.42;100.00
13420;BME280;6781;58.440;15.470;2023-02-28T07:54:41;103502.91;;;-0.42;100.00
13420;BME280;6781;58.440;15.470;2023-02-28T07:57:23;103505.53;;;-0.36;100.00
13420;BME280;6781;58.440;15.470;2023-02-28T08:00:24;103496.25;;;-0.31;100.00
13420;BME280;6781;58.440;15.470;2023-02-28T08:02:52;103501.44;;;-0.25;100.00
13420;BME280;6781;58.440;15.470;2023-02-28T08:05:39;103505.66;;;-0.27;100.00
13420;BME280;6781;58.440;15.470;2023-02-28T08:17:57;103496.69;;;0.04;100.00
13420;BME280;6781;58.440;15.470;2023-02-28T08:32:53;103525.59;;;0.80;100.00
13420;BME280;6781;58.440;15.470;2023-02-28T08:35:37;103534.22;;;0.93;100.00
13420;BME280;6781;58.440;15.470;2023-02-28T08:38:19;103537.72;;;1.04;100.00
13420;BME280;6781;58.440;15.470;2023-02-28T08:40:46;103533.53;;;1.12;100.00
13420;BME280;6781;58.440;15.470;2023-02-28T08:43:27;103520.78;;;1.17;100.00
13420;BME280;6781;58.440;15.470;2023-02-28T08:45:56;103519.31;;;1.49;100.00
13420;BME280;6781;58.440;15.470;2023-02-28T08:48:29;103517.75;;;1.71;100.00
13420;BME280;6781;58.440;15.470;2023-02-28T08:51:16;103503.31;;;1.88;100.00
13420;BME280;6781;58.440;15.470;2023-02-28T08:53:58;103474.31;;;1.89;100.00
13420;BME280;6781;58.440;15.470;2023-02-28T08:56:27;103446.16;;;1.85;100.00
13420;BME280;6781;58.440;15.470;2023-02-28T08:58:55;103432.50;;;1.86;100.00
13420;BME280;6781;58.440;15.470;2023-02-28T09:01:25;103423.22;;;2.17;100.00
13420;BME280;6781;58.440;15.470;2023-02-28T09:03:53;103418.94;;;2.23;100.00
13420;BME280;6781;58.440;15.470;2023-02-28T09:06:23;103402.72;;;2.20;100.00
13420;BME280;6781;58.440;15.470;2023-02-28T09:08:51;103396.78;;;2.42;100.00
13420;BME280;6781;58.440;15.470;2023-02-28T09:11:20;103370.31;;;2.46;100.00
13420;BME280;6781;58.440;15.470;2023-02-28T09:14:01;103358.34;;;2.67;100.00
13420;BME280;6781;58.440;15.470;2023-02-28T09:16:28;103342.94;;;2.88;100.00
13420;BME280;6781;58.440;15.470;2023-02-28T09:18:55;103316.44;;;3.03;100.00
13420;BME280;6781;58.440;15.470;2023-02-28T09:21:24;103272.81;;;3.12;100.00
13420;BME280;6781;58.440;15.470;2023-02-28T09:23:52;103238.56;;;3.23;100.00
13420;BME280;6781;58.440;15.470;2023-02-28T09:26:19;103211.13;;;3.39;100.00
13420;BME280;6781;58.440;15.470;2023-02-28T09:28:47;103177.47;;;3.73;100.00
13420;BME280;6781;58.440;15.470;2023-02-28T09:31:16;103145.75;;;3.81;100.00
13420;BME280;6781;58.440;15.470;2023-02-28T09:33:45;103097.69;;;3.96;100.00
13420;BME280;6781;58.440;15.470;2023-02-28T09:36:12;103052.41;;;3.90;100.00
13420;BME280;6781;58.440;15.470;2023-02-28T09:38:41;103016.44;;;3.91;100.00
13420;BME280;6781;58.440;15.470;2023-02-28T09:41:11;102987.13;;;4.09;100.00
13420;BME280;6781;58.440;15.470;2023-02-28T09:43:41;102958.75;;;4.20;100.00
13420;BME280;6781;58.440;15.470;2023-02-28T09:46:12;102918.56;;;4.16;100.00
13420;BME280;6781;58.440;15.470;2023-02-28T09:48:42;102893.34;;;4.42;100.00
13420;BME280;6781;58.440;15.470;2023-02-28T09:51:13;102859.66;;;4.59;100.00
13420;BME280;6781;58.440;15.470;2023-02-28T09:53:43;102827.69;;;4.74;100.00
13420;BME280;6781;58.440;15.470;2023-02-28T09:56:11;102798.53;;;4.76;100.00
13420;BME280;6781;58.440;15.470;2023-02-28T09:58:41;102769.28;;;4.82;100.00
13420;BME280;6781;58.440;15.470;2023-02-28T10:01:12;102735.00;;;4.83;100.00
13420;BME280;6781;58.440;15.470;2023-02-28T10:03:46;102711.03;;;4.81;100.00
13420;BME280;6781;58.440;15.470;2023-02-28T10:06:17;102692.72;;;4.96;100.00
13420;BME280;6781;58.440;15.470;2023-02-28T10:08:48;102671.22;;;5.00;100.00
13420;BME280;6781;58.440;15.470;2023-02-28T10:11:19;102651.13;;;5.16;100.00
13420;BME280;6781;58.440;15.470;2023-02-28T10:13:52;102629.66;;;5.18;100.00
13420;BME280;6781;58.440;15.470;2023-02-28T10:16:25;102608.59;;;5.37;100.00
13420;BME280;6781;58.440;15.470;2023-02-28T10:18:57;102579.03;;;5.53;100.00
13420;BME280;6781;58.440;15.470;2023-02-28T10:21:25;102566.16;;;5.53;100.00
13420;BME280;6781;58.440;15.470;2023-02-28T10:23:59;102559.03;;;5.63;100.00
13420;BME280;6781;58.440;15.470;2023-02-28T10:26:32;102536.63;;;5.66;100.00
13420;BME280;6781;58.440;15.470;2023-02-28T10:29:07;102500.34;;;5.75;100.00
13420;BME280;6781;58.440;15.470;2023-02-28T10:31:34;102500.69;;;5.63;100.00
13420;BME280;6781;58.440;15.470;2023-02-28T10:34:01;102504.31;;;5.56;100.00
13420;BME280;6781;58.440;15.470;2023-02-28T10:36:31;102510.19;;;5.61;100.00
13420;BME280;6781;58.440;15.470;2023-02-28T10:39:00;102503.75;;;5.45;100.00
13420;BME280;6781;58.440;15.470;2023-02-28T10:41:30;102501.66;;;5.59;100.00
13420;BME280;6781;58.440;15.470;2023-02-28T10:44:12;102497.53;;;5.53;100.00
13420;BME280;6781;58.440;15.470;2023-02-28T10:46:39;102485.88;;;5.40;100.00
13420;BME280;6781;58.440;15.470;2023-02-28T10:49:11;102486.63;;;5.44;100.00
13420;BME280;6781;58.440;15.470;2023-02-28T10:51:39;102481.41;;;5.78;100.00
13420;BME280;6781;58.440;15.470;2023-02-28T10:54:18;102473.19;;;5.65;100.00
13420;BME280;6781;58.440;15.470;2023-02-28T10:56:45;102459.59;;;5.60;100.00
13420;BME280;6781;58.440;15.470;2023-02-28T10:59:26;102457.28;;;5.51;100.00
13420;BME280;6781;58.440;15.470;2023-02-28T11:01:54;102467.47;;;5.54;100.00
13420;BME280;6781;58.440;15.470;2023-02-28T11:04:31;102457.28;;;5.51;100.00
13420;BME280;6781;58.440;15.470;2023-02-28T11:07:16;102451.28;;;5.50;100.00
13420;BME280;6781;58.440;15.470;2023-02-28T11:09:52;102443.25;;;5.61;100.00
13420;BME280;6781;58.440;15.470;2023-02-28T11:12:29;102436.25;;;5.66;100.00
13420;BME280;6781;58.440;15.470;2023-02-28T11:14:58;102422.53;;;5.66;100.00
13420;BME280;6781;58.440;15.470;2023-02-28T11:17:40;102408.66;;;5.71;100.00
13420;BME280;6781;58.440;15.470;2023-02-28T11:20:17;102401.63;;;5.76;100.00
13420;BME280;6781;58.440;15.470;2023-02-28T11:23:01;102392.69;;;5.90;100.00
13420;BME280;6781;58.440;15.470;2023-02-28T11:25:34;102378.84;;;5.94;100.00
13420;BME280;6781;58.440;15.470;2023-02-28T11:28:22;102377.41;;;5.83;100.00
13420;BME280;6781;58.440;15.470;2023-02-28T11:31:01;102387.78;;;5.80;100.00
13420;BME280;6781;58.440;15.470;2023-02-28T11:33:29;102391.16;;;5.82;100.00
13420;BME280;6781;58.440;15.470;2023-02-28T11:35:58;102379.22;;;5.80;100.00
13420;BME280;6781;58.440;15.470;2023-02-28T11:38:26;102368.75;;;5.86;100.00
13420;BME280;6781;58.440;15.470;2023-02-28T11:41:05;102363.72;;;5.81;100.00
13420;BME280;6781;58.440;15.470;2023-02-28T11:43:39;102352.03;;;5.71;100.00
13420;BME280;6781;58.440;15.470;2023-02-28T11:46:16;102351.09;;;5.74;100.00
13420;BME280;6781;58.440;15.470;2023-02-28T11:48:47;102351.03;;;5.75;100.00
13420;BME280;6781;58.440;15.470;2023-02-28T11:51:19;102358.56;;;5.81;100.00
13420;BME280;6781;58.440;15.470;2023-02-28T11:56:38;102368.69;;;5.87;100.00
13420;BME280;6781;58.440;15.470;2023-02-28T11:59:22;102371.06;;;5.95;100.00
13420;BME280;6781;58.440;15.470;2023-02-28T12:02:00;102378.66;;;6.00;100.00
13420;BME280;6781;58.440;15.470;2023-02-28T12:04:34;102378.66;;;6.00;100.00
13420;BME280;6781;58.440;15.470;2023-02-28T12:07:03;102388.66;;;6.09;100.00
13420;BME280;6781;58.440;15.470;2023-02-28T12:09:43;102381.19;;;6.01;100.00
13420;BME280;6781;58.440;15.470;2023-02-28T12:15:16;102384.75;;;5.97;100.00
13420;BME280;6781;58.440;15.470;2023-02-28T12:17:48;102394.19;;;5.97;100.00
13420;BME280;6781;58.440;15.470;2023-02-28T12:20:22;102389.97;;;5.94;100.00
13420;BME280;6781;58.440;15.470;2023-02-28T12:22:54;102393.31;;;5.98;100.00
13420;BME280;6781;58.440;15.470;2023-02-28T12:25:37;102393.31;;;5.98;100.00
13420;BME280;6781;58.440;15.470;2023-02-28T12:28:10;102394.19;;;5.97;100.00
13420;BME280;6781;58.440;15.470;2023-02-28T12:30:41;102402.72;;;5.99;100.00
13420;BME280;6781;58.440;15.470;2023-02-28T12:33:14;102403.66;;;5.96;100.00
13420;BME280;6781;58.440;15.470;2023-02-28T12:35:44;102411.25;;;6.01;100.00
13420;BME280;6781;58.440;15.470;2023-02-28T12:38:14;102412.75;;;6.08;100.00
13420;BME280;6781;58.440;15.470;2023-02-28T12:40:47;102407.81;;;6.00;100.00
13420;BME280;6781;58.440;15.470;2023-02-28T12:43:25;102412.66;;;6.11;100.00
13420;BME280;6781;58.440;15.470;2023-02-28T12:45:56;102410.88;;;6.13;100.00
13420;BME280;6781;58.440;15.470;2023-02-28T12:48:24;102411.66;;;6.15;100.00
13420;BME280;6781;58.440;15.470;2023-02-28T12:50:53;102422.47;;;6.26;100.00
13420;BME280;6781;58.440;15.470;2023-02-28T12:53:25;102418.13;;;6.28;100.00
13420;BME280;6781;58.440;15.470;2023-02-28T12:55:56;102418.72;;;6.36;100.00
13420;BME280;6781;58.440;15.470;2023-02-28T12:58:27;102416.03;;;6.39;100.00
13420;BME280;6781;58.440;15.470;2023-02-28T13:01:06;102403.16;;;6.39;100.00
13420;BME280;6781;58.440;15.470;2023-02-28T13:03:44;102384.13;;;6.43;100.00
13420;BME280;6781;58.440;15.470;2023-02-28T13:09:04;102351.06;;;6.56;100.00
13420;BME280;6781;58.440;15.470;2023-02-28T13:11:38;102338.66;;;6.67;100.00
13420;BME280;6781;58.440;15.470;2023-02-28T13:14:06;102323.34;;;6.63;100.00
13420;BME280;6781;58.440;15.470;2023-02-28T13:17:01;102326.44;;;6.47;100.00
13420;BME280;6781;58.440;15.470;2023-02-28T13:19:29;102325.75;;;6.42;100.00
13420;BME280;6781;58.440;15.470;2023-02-28T13:21:57;102320.50;;;6.45;100.00
13420;BME280;6781;58.440;15.470;2023-02-28T13:24:39;102318.66;;;6.49;100.00
13420;BME280;6781;58.440;15.470;2023-02-28T13:27:21;102314.44;;;6.46;100.00
13420;BME280;6781;58.440;15.470;2023-02-28T13:32:37;102315.66;;;6.36;100.00
13420;BME280;6781;58.440;15.470;2023-02-28T13:40:54;102321.09;;;6.27;100.00
13420;BME280;6781;58.440;15.470;2023-02-28T13:43:29;102317.22;;;6.40;100.00
13420;BME280;6781;58.440;15.470;2023-02-28T13:46:18;102319.81;;;6.40;100.00
13420;BME280;6781;58.440;15.470;2023-02-28T13:48:48;102324.47;;;6.29;100.00
13420;BME280;6781;58.440;15.470;2023-02-28T13:51:28;102338.25;;;6.28;100.00